Time;durP1;ratioP1;P1;durP2;ratioP2;P2;SDS_P1;SDS_P2;PMS_P1;PMS_P2;Temp;Humidity;BMP_temperature;BMP_pressure;BME280_temperature;BME280_humidity;BME280_pressure;Samples;Min_cycle;Max_cycle;Signal;HPM_P1;HPM_P2
2022/07/25 00:01:54;;;;;;;6.95;2.40;;;16.10;99.90;;;;;;5003364;28;20027;-91
2022/07/25 00:04:20;;;;;;;8.57;2.70;;;16.10;99.90;;;;;;4989561;28;20054;-91
2022/07/25 00:06:47;;;;;;;5.28;2.78;;;16.10;99.90;;;;;;5006708;28;20034;-93
2022/07/25 00:09:12;;;;;;;11.55;3.58;;;16.00;99.90;;;;;;4979900;28;20026;-91
2022/07/25 00:11:38;;;;;;;10.90;2.85;;;16.00;99.90;;;;;;4992223;28;20120;-93
2022/07/25 00:14:05;;;;;;;8.50;3.03;;;16.00;99.90;;;;;;4985348;28;20026;-94
2022/07/25 00:16:31;;;;;;;13.63;3.03;;;16.00;99.90;;;;;;4997897;28;20026;-90
2022/07/25 00:18:56;;;;;;;7.38;3.28;;;16.00;99.90;;;;;;4979770;28;20028;-89
2022/07/25 00:21:22;;;;;;;16.55;4.03;;;16.10;99.90;;;;;;4979300;28;20031;-93
2022/07/25 00:23:48;;;;;;;8.48;3.63;;;16.10;99.90;;;;;;4978644;28;20089;-92
2022/07/25 00:26:13;;;;;;;10.00;3.20;;;16.10;99.90;;;;;;4979975;28;20113;-92
2022/07/25 00:28:39;;;;;;;11.02;2.97;;;16.10;99.90;;;;;;4980143;28;20053;-93
2022/07/25 00:31:05;;;;;;;11.55;3.92;;;16.10;99.90;;;;;;4979932;28;20476;-94
2022/07/25 00:33:31;;;;;;;7.13;3.15;;;16.10;99.90;;;;;;4979626;28;20028;-92
2022/07/25 00:35:57;;;;;;;8.75;2.97;;;16.10;99.90;;;;;;4997604;28;20027;-92
2022/07/25 00:38:22;;;;;;;13.57;3.25;;;16.10;99.90;;;;;;4980613;28;20022;-92
2022/07/25 00:40:48;;;;;;;10.10;3.13;;;16.10;99.90;;;;;;4980610;28;20032;-93
2022/07/25 00:43:14;;;;;;;7.68;2.88;;;16.10;99.90;;;;;;4980094;28;20030;-91
2022/07/25 00:45:39;;;;;;;10.23;3.10;;;16.00;99.90;;;;;;4997374;28;20030;-93
2022/07/25 00:48:07;;;;;;;7.68;3.22;;;16.00;99.90;;;;;;4979865;28;20031;-90
2022/07/25 00:50:35;;;;;;;9.73;3.30;;;16.00;99.90;;;;;;4997251;28;20463;-90
2022/07/25 00:53:00;;;;;;;11.27;3.10;;;16.00;99.90;;;;;;4980126;28;20038;-89
2022/07/25 00:55:27;;;;;;;10.68;3.10;;;16.00;99.90;;;;;;4997678;28;20034;-91
2022/07/25 00:57:52;;;;;;;11.05;2.97;;;16.00;99.90;;;;;;4986521;28;20114;-91
2022/07/25 01:00:19;;;;;;;9.68;3.95;;;16.00;99.90;;;;;;4999376;28;20058;-93
2022/07/25 01:02:44;;;;;;;11.05;3.20;;;16.00;99.90;;;;;;4997166;28;20106;-91
2022/07/25 01:05:10;;;;;;;9.05;3.28;;;16.00;99.90;;;;;;4996727;28;20058;-91
2022/07/25 01:07:37;;;;;;;16.70;3.20;;;16.00;99.90;;;;;;4979176;28;20129;-91
2022/07/25 01:10:04;;;;;;;7.30;2.80;;;16.00;99.90;;;;;;4979258;28;20037;-94
2022/07/25 01:12:43;;;;;;;14.40;3.13;;;16.00;99.90;;;;;;4980003;28;20113;-91
2022/07/25 01:15:09;;;;;;;9.40;3.08;;;16.00;99.90;;;;;;4979800;28;20022;-92
2022/07/25 01:17:35;;;;;;;11.02;3.13;;;16.00;99.90;;;;;;4996927;28;20022;-93
2022/07/25 01:20:00;;;;;;;10.60;2.97;;;16.00;99.90;;;;;;4979327;28;20143;-91
2022/07/25 01:22:26;;;;;;;6.22;2.97;;;16.00;99.90;;;;;;4979744;28;20026;-92
2022/07/25 01:24:53;;;;;;;10.60;3.15;;;16.00;99.90;;;;;;4979274;28;20038;-93
2022/07/25 01:27:19;;;;;;;8.30;3.10;;;16.00;99.90;;;;;;4979393;28;20046;-91
2022/07/25 01:29:44;;;;;;;8.50;3.80;;;16.10;99.90;;;;;;4996664;28;20022;-91
2022/07/25 01:32:11;;;;;;;11.95;2.60;;;16.10;99.90;;;;;;4999728;28;20482;-89
2022/07/25 01:34:38;;;;;;;11.60;2.72;;;16.10;99.90;;;;;;4978925;28;20030;-91
2022/07/25 01:37:06;;;;;;;8.25;2.50;;;16.10;99.90;;;;;;4980101;28;20046;-89
2022/07/25 01:39:32;;;;;;;10.00;2.60;;;16.10;99.90;;;;;;4996778;28;20023;-93
2022/07/25 01:41:59;;;;;;;14.68;2.80;;;16.10;99.90;;;;;;4995963;28;20529;-92
2022/07/25 01:44:26;;;;;;;6.53;2.42;;;16.10;99.90;;;;;;4979210;28;20036;-92
2022/07/25 01:46:52;;;;;;;6.57;3.00;;;16.10;99.90;;;;;;4979225;28;20034;-95
2022/07/25 01:49:17;;;;;;;8.40;2.55;;;16.20;99.90;;;;;;4997137;28;20353;-94
2022/07/25 01:51:43;;;;;;;8.77;2.70;;;16.10;99.90;;;;;;4985354;28;20026;-92
2022/07/25 01:54:10;;;;;;;5.70;2.72;;;16.10;99.90;;;;;;5003902;28;20026;-93
2022/07/25 01:56:35;;;;;;;9.48;2.95;;;16.20;99.90;;;;;;4987909;28;20027;-93
2022/07/25 01:59:08;;;;;;;12.27;3.28;;;16.10;99.90;;;;;;5006967;28;20022;-89
2022/07/25 02:01:33;;;;;;;10.75;3.15;;;16.20;99.90;;;;;;4969868;28;20031;-91
2022/07/25 02:03:59;;;;;;;10.25;3.10;;;16.20;99.90;;;;;;4979759;28;20075;-92
2022/07/25 02:06:25;;;;;;;11.57;2.33;;;16.10;99.90;;;;;;4979571;28;20073;-94
2022/07/25 02:08:52;;;;;;;14.77;2.55;;;16.10;99.90;;;;;;4979122;28;20121;-92
2022/07/25 02:11:18;;;;;;;10.50;2.47;;;16.10;99.90;;;;;;4979049;28;20045;-91
2022/07/25 02:13:46;;;;;;;6.88;3.20;;;16.10;99.90;;;;;;4997031;28;20392;-92
2022/07/25 02:16:13;;;;;;;8.65;2.53;;;16.10;99.90;;;;;;4963007;28;20026;-93
2022/07/25 02:18:39;;;;;;;9.23;2.70;;;16.00;99.90;;;;;;4978769;28;20050;-93
2022/07/25 02:21:07;;;;;;;10.02;2.60;;;16.00;99.90;;;;;;4996582;28;20018;-94
2022/07/25 02:23:33;;;;;;;9.00;2.67;;;15.90;99.90;;;;;;4980434;28;20046;-95
2022/07/25 02:25:58;;;;;;;10.73;2.63;;;15.90;99.90;;;;;;4995706;28;20026;-94
2022/07/25 02:28:24;;;;;;;13.75;2.55;;;15.90;99.90;;;;;;4978666;28;20125;-92
2022/07/25 02:30:50;;;;;;;12.18;2.35;;;15.80;99.90;;;;;;4995895;28;20138;-93
2022/07/25 02:33:17;;;;;;;8.82;2.50;;;15.80;99.90;;;;;;4978847;28;20129;-91
2022/07/25 02:35:45;;;;;;;9.23;2.78;;;15.80;99.90;;;;;;4978758;28;20026;-92
2022/07/25 02:38:18;;;;;;;7.75;2.30;;;15.80;99.90;;;;;;4962943;28;20081;-92
2022/07/25 02:41:06;;;;;;;6.32;2.30;;;15.80;99.90;;;;;;4978563;28;20455;-93
2022/07/25 02:43:32;;;;;;;9.60;2.35;;;15.80;99.90;;;;;;4996402;28;20060;-94
2022/07/25 02:45:57;;;;;;;5.30;2.38;;;15.80;99.90;;;;;;4995370;28;20061;-90
2022/07/25 02:48:23;;;;;;;9.98;2.63;;;15.80;99.90;;;;;;4996390;28;20033;-91
2022/07/25 02:50:49;;;;;;;7.10;2.25;;;15.80;99.90;;;;;;4979604;28;20027;-93
2022/07/25 02:53:15;;;;;;;5.57;1.77;;;15.80;99.90;;;;;;4985190;28;20026;-90
2022/07/25 02:55:41;;;;;;;9.98;2.58;;;15.80;99.90;;;;;;5014604;28;20029;-92
2022/07/25 02:58:07;;;;;;;7.13;2.40;;;15.70;99.90;;;;;;5007614;28;20034;-91
2022/07/25 03:00:33;;;;;;;11.75;2.63;;;15.70;99.90;;;;;;4978449;28;20022;-92
2022/07/25 03:02:59;;;;;;;5.88;2.38;;;15.70;99.90;;;;;;4995223;28;20042;-91
2022/07/25 03:05:24;;;;;;;12.32;2.30;;;15.70;99.90;;;;;;4977741;28;20062;-94
2022/07/25 03:07:50;;;;;;;10.40;2.25;;;15.80;99.90;;;;;;4978042;28;20049;-93
2022/07/25 03:10:16;;;;;;;9.57;2.17;;;15.80;99.90;;;;;;4977751;28;20029;-93
2022/07/25 03:12:43;;;;;;;5.30;2.00;;;15.80;99.90;;;;;;4978178;28;20092;-92
2022/07/25 03:15:11;;;;;;;7.03;2.38;;;15.70;99.90;;;;;;4977550;28;20169;-93
2022/07/25 03:17:37;;;;;;;4.55;2.03;;;15.70;99.90;;;;;;4977473;28;20395;-93
2022/07/25 03:20:04;;;;;;;6.10;2.17;;;15.70;99.90;;;;;;4977240;28;20078;-94
2022/07/25 03:22:34;;;;;;;6.93;2.40;;;15.70;99.90;;;;;;4994871;28;20194;-92
2022/07/25 03:25:03;;;;;;;4.82;2.08;;;15.70;99.90;;;;;;4977498;28;20077;-94
2022/07/25 03:27:29;;;;;;;6.35;2.80;;;15.70;99.90;;;;;;4994924;28;20404;-93
2022/07/25 03:29:55;;;;;;;9.10;2.20;;;15.70;99.90;;;;;;4977492;28;20098;-93
2022/07/25 03:32:22;;;;;;;6.80;2.50;;;15.60;99.90;;;;;;4977244;28;20039;-92
2022/07/25 03:34:47;;;;;;;8.05;2.72;;;15.60;99.90;;;;;;4993843;28;20027;-94
2022/07/25 03:37:19;;;;;;;8.70;2.28;;;15.60;99.90;;;;;;4977290;28;20041;-94
2022/07/25 03:39:45;;;;;;;8.60;2.50;;;15.60;99.90;;;;;;4977181;28;20369;-92
2022/07/25 03:42:12;;;;;;;10.02;2.47;;;15.60;99.90;;;;;;4994498;28;20092;-93
2022/07/25 03:44:38;;;;;;;5.35;2.60;;;15.60;99.90;;;;;;4994694;28;20031;-94
2022/07/25 03:47:12;;;;;;;5.68;2.53;;;15.60;99.90;;;;;;4977408;28;20041;-93
2022/07/25 03:49:38;;;;;;;6.88;2.50;;;15.60;99.90;;;;;;4978292;28;20035;-93
2022/07/25 03:52:04;;;;;;;5.38;2.20;;;15.60;99.90;;;;;;4994607;28;20165;-93
2022/07/25 03:54:31;;;;;;;8.50;2.25;;;15.60;99.90;;;;;;4976813;28;20194;-92
2022/07/25 03:56:58;;;;;;;6.72;2.30;;;15.60;99.90;;;;;;4977727;28;20031;-90
2022/07/25 03:59:25;;;;;;;5.40;2.10;;;15.60;99.90;;;;;;4978687;28;20089;-93
2022/07/25 04:01:51;;;;;;;7.63;2.15;;;15.60;99.90;;;;;;4980710;28;20022;-91
2022/07/25 04:04:17;;;;;;;3.67;1.83;;;15.60;99.90;;;;;;4980445;28;20085;-89
2022/07/25 04:06:44;;;;;;;7.10;2.00;;;15.60;99.90;;;;;;4980515;28;20101;-93
2022/07/25 04:09:10;;;;;;;7.25;2.15;;;15.60;99.90;;;;;;4980300;28;20050;-93
2022/07/25 04:11:38;;;;;;;8.63;2.58;;;15.50;99.90;;;;;;4980259;28;20026;-92
2022/07/25 04:14:05;;;;;;;8.15;2.47;;;15.50;99.90;;;;;;4980097;28;20069;-93
2022/07/25 04:16:31;;;;;;;9.30;2.40;;;15.50;99.90;;;;;;4980270;28;20018;-91
2022/07/25 04:18:58;;;;;;;10.10;2.10;;;15.50;99.90;;;;;;4980395;28;20230;-91
2022/07/25 04:21:24;;;;;;;10.45;2.42;;;15.50;99.90;;;;;;4983831;28;20034;-90
2022/07/25 04:23:50;;;;;;;9.85;2.28;;;15.50;99.90;;;;;;4990986;28;20050;-92
2022/07/25 04:26:16;;;;;;;5.30;2.20;;;15.40;99.90;;;;;;4989647;28;20042;-92
2022/07/25 04:28:42;;;;;;;5.93;1.90;;;15.50;99.90;;;;;;5003038;28;20035;-92
2022/07/25 04:31:09;;;;;;;6.28;2.22;;;15.40;99.90;;;;;;5004454;28;20038;-92
2022/07/25 04:33:39;;;;;;;8.85;2.15;;;15.50;99.90;;;;;;4986803;28;20031;-90
2022/07/25 04:36:06;;;;;;;6.43;1.85;;;15.40;99.90;;;;;;4988082;28;20026;-92
2022/07/25 04:38:34;;;;;;;11.48;2.08;;;15.50;99.90;;;;;;4985548;28;20085;-93
2022/07/25 04:40:59;;;;;;;4.45;1.80;;;15.40;99.90;;;;;;5003047;28;20029;-93
2022/07/25 04:43:26;;;;;;;5.28;1.63;;;15.50;99.90;;;;;;4985378;28;20018;-91
2022/07/25 04:45:52;;;;;;;7.45;2.25;;;15.40;99.90;;;;;;4979811;28;20121;-93
2022/07/25 04:48:19;;;;;;;10.25;1.98;;;15.40;99.90;;;;;;4979512;28;20117;-92
2022/07/25 04:50:45;;;;;;;4.43;1.73;;;15.40;99.90;;;;;;4980357;28;20058;-93
2022/07/25 04:53:11;;;;;;;6.28;1.55;;;15.40;99.90;;;;;;4989170;28;20023;-92
2022/07/25 04:55:39;;;;;;;4.90;1.60;;;15.40;99.90;;;;;;4985539;28;20122;-92
2022/07/25 04:58:05;;;;;;;4.22;1.70;;;15.40;99.90;;;;;;4997155;28;20385;-92
2022/07/25 05:00:31;;;;;;;3.65;1.40;;;15.40;99.90;;;;;;4980258;28;20034;-93
2022/07/25 05:02:57;;;;;;;6.68;1.70;;;15.40;99.90;;;;;;4979934;28;20025;-92
2022/07/25 05:05:23;;;;;;;4.75;1.52;;;15.40;99.90;;;;;;4997591;28;20030;-90
2022/07/25 05:07:49;;;;;;;4.90;1.48;;;15.40;99.90;;;;;;4979720;28;20030;-91
2022/07/25 05:10:15;;;;;;;5.28;1.65;;;15.40;99.90;;;;;;4979354;28;20081;-91
2022/07/25 05:12:41;;;;;;;7.25;1.77;;;15.40;99.90;;;;;;4979932;28;20034;-92
2022/07/25 05:15:08;;;;;;;6.25;1.65;;;15.40;99.90;;;;;;4980211;28;20048;-93
2022/07/25 05:17:34;;;;;;;7.25;1.60;;;15.50;99.90;;;;;;4979519;28;20530;-92
2022/07/25 05:20:00;;;;;;;5.57;1.60;;;15.40;99.90;;;;;;4996907;28;20018;-91
2022/07/25 05:22:26;;;;;;;5.57;1.80;;;15.50;99.90;;;;;;4996853;28;20026;-92
2022/07/25 05:24:52;;;;;;;2.25;1.40;;;15.50;99.90;;;;;;4996562;28;20046;-92
2022/07/25 05:27:17;;;;;;;4.57;1.42;;;15.50;99.90;;;;;;4983148;28;20072;-91
2022/07/25 05:29:43;;;;;;;3.53;1.27;;;15.50;99.90;;;;;;4982462;28;20109;-91
2022/07/25 05:32:09;;;;;;;8.70;1.73;;;15.60;99.90;;;;;;4982983;28;20193;-91
2022/07/25 05:34:34;;;;;;;9.73;1.85;;;15.60;99.90;;;;;;4997317;28;20031;-92
2022/07/25 05:37:00;;;;;;;6.07;1.92;;;15.60;99.90;;;;;;4979121;28;20427;-94
2022/07/25 05:39:26;;;;;;;5.40;1.75;;;15.60;99.90;;;;;;4996404;28;20065;-91
2022/07/25 05:41:52;;;;;;;11.98;2.25;;;15.70;99.90;;;;;;4979224;28;20026;-92
2022/07/25 05:44:17;;;;;;;7.47;2.20;;;15.70;99.90;;;;;;4996585;28;20391;-92
2022/07/25 05:46:46;;;;;;;5.55;1.70;;;15.70;99.90;;;;;;4994645;28;20036;-90
2022/07/25 05:49:11;;;;;;;4.75;1.95;;;15.70;99.90;;;;;;4967321;28;20126;-90
2022/07/25 05:51:37;;;;;;;7.45;1.80;;;15.70;99.90;;;;;;4958347;28;20062;-90
2022/07/25 05:54:04;;;;;;;5.55;1.73;;;15.70;99.90;;;;;;4976582;28;20089;-90
2022/07/25 05:56:30;;;;;;;5.82;2.00;;;15.80;99.90;;;;;;4977407;28;20031;-92
2022/07/25 05:58:56;;;;;;;7.43;1.92;;;15.80;99.90;;;;;;4977547;28;20544;-90
2022/07/25 06:01:21;;;;;;;5.72;2.15;;;15.80;99.90;;;;;;4977997;28;20030;-91
2022/07/25 06:03:48;;;;;;;7.10;1.83;;;15.70;99.90;;;;;;4977245;28;20034;-88
2022/07/25 06:06:14;;;;;;;4.53;1.95;;;15.70;99.90;;;;;;4977747;28;20030;-90
2022/07/25 06:08:40;;;;;;;3.42;1.63;;;15.80;99.90;;;;;;4977803;28;20203;-91
2022/07/25 06:11:07;;;;;;;3.83;1.80;;;15.80;99.90;;;;;;4977702;28;20018;-91
2022/07/25 06:13:33;;;;;;;4.75;1.45;;;15.80;99.90;;;;;;4995270;28;20039;-90
2022/07/25 06:15:59;;;;;;;3.85;1.60;;;15.80;99.90;;;;;;4977685;28;20502;-89
2022/07/25 06:18:25;;;;;;;4.13;2.05;;;15.80;99.90;;;;;;4977256;28;20062;-90
2022/07/25 06:20:51;;;;;;;4.65;1.48;;;15.80;99.90;;;;;;4976916;28;20029;-91
2022/07/25 06:23:17;;;;;;;4.65;1.60;;;15.80;99.90;;;;;;4977359;28;20034;-92
2022/07/25 06:25:44;;;;;;;7.20;2.55;;;15.70;99.90;;;;;;4977501;28;20034;-92
2022/07/25 06:28:10;;;;;;;7.40;1.98;;;15.70;99.90;;;;;;4978184;28;20487;-93
2022/07/25 06:30:36;;;;;;;3.28;1.27;;;15.70;99.90;;;;;;4978874;28;20018;-92
2022/07/25 06:33:01;;;;;;;6.05;1.40;;;15.70;99.90;;;;;;4979045;28;20072;-87
2022/07/25 06:35:27;;;;;;;6.68;1.35;;;15.70;99.90;;;;;;4986313;28;20407;-92
2022/07/25 06:37:54;;;;;;;3.13;1.30;;;15.70;99.90;;;;;;5010842;28;20464;-93
2022/07/25 06:40:20;;;;;;;9.30;2.65;;;15.80;99.90;;;;;;4991490;28;20038;-91
2022/07/25 06:42:46;;;;;;;4.10;1.30;;;15.80;99.90;;;;;;4979103;28;20030;-93
2022/07/25 06:45:13;;;;;;;4.15;1.35;;;15.80;99.90;;;;;;4998926;28;20027;-91
2022/07/25 06:47:40;;;;;;;2.08;1.08;;;15.80;99.90;;;;;;4995537;28;20038;-92
2022/07/25 06:50:08;;;;;;;4.03;1.50;;;15.80;99.90;;;;;;4994794;28;20153;-92
2022/07/25 06:52:36;;;;;;;3.30;1.50;;;15.80;99.90;;;;;;4994151;28;20037;-93
2022/07/25 06:55:03;;;;;;;4.57;1.75;;;15.80;99.90;;;;;;4978137;28;20022;-91
2022/07/25 06:57:29;;;;;;;3.28;1.60;;;15.90;99.90;;;;;;4978196;28;20038;-91
2022/07/25 06:59:55;;;;;;;6.70;1.70;;;15.90;99.90;;;;;;4977677;28;20034;-93
2022/07/25 07:02:21;;;;;;;2.40;1.50;;;15.90;99.90;;;;;;4978062;28;20034;-91
2022/07/25 07:04:48;;;;;;;5.07;1.67;;;15.90;99.90;;;;;;4995296;28;20029;-92
2022/07/25 07:07:15;;;;;;;3.45;1.30;;;15.90;99.90;;;;;;4994969;28;20038;-92
2022/07/25 07:09:41;;;;;;;2.25;1.27;;;15.90;99.90;;;;;;4978407;28;20053;-92
2022/07/25 07:12:08;;;;;;;4.15;1.58;;;15.90;99.90;;;;;;4978000;28;20391;-93
2022/07/25 07:14:36;;;;;;;3.38;1.27;;;15.90;99.90;;;;;;4961832;28;20041;-92
2022/07/25 07:17:03;;;;;;;2.13;1.10;;;15.90;99.90;;;;;;4996291;28;20053;-94
2022/07/25 07:19:28;;;;;;;2.42;1.25;;;15.90;99.90;;;;;;4975915;28;20050;-88
2022/07/25 07:21:54;;;;;;;5.03;1.50;;;15.80;99.90;;;;;;4992094;28;20465;-93
2022/07/25 07:24:20;;;;;;;2.78;1.33;;;15.80;99.90;;;;;;4966037;28;20100;-90
2022/07/25 07:26:45;;;;;;;2.65;1.60;;;15.80;99.90;;;;;;4989093;28;20056;-93
2022/07/25 07:29:13;;;;;;;2.38;1.60;;;15.80;99.90;;;;;;4988286;28;20023;-91
2022/07/25 07:31:42;;;;;;;3.40;2.10;;;15.80;99.90;;;;;;4967201;28;20724;-90
2022/07/25 07:34:08;;;;;;;3.72;2.03;;;15.80;99.90;;;;;;4976232;28;20031;-91
2022/07/25 07:36:33;;;;;;;3.80;2.75;;;15.90;99.90;;;;;;4975315;28;20032;-92
2022/07/25 07:38:59;;;;;;;6.40;3.20;;;15.90;99.90;;;;;;4973142;28;20121;-91
2022/07/25 07:41:25;;;;;;;4.93;2.97;;;15.90;99.90;;;;;;4989703;28;20022;-89
2022/07/25 07:43:50;;;;;;;7.15;3.13;;;16.00;99.90;;;;;;4971586;28;20029;-91
2022/07/25 07:46:16;;;;;;;4.72;3.78;;;16.00;99.90;;;;;;4965678;28;20051;-91
2022/07/25 07:48:48;;;;;;;6.72;4.55;;;16.00;99.90;;;;;;4964992;28;20027;-92
2022/07/25 07:51:13;;;;;;;10.13;5.38;;;16.00;99.90;;;;;;4991170;28;20027;-92
2022/07/25 07:56:24;;;;;;;5.95;5.05;;;16.00;99.90;;;;;;4999088;28;20036;-94
2022/07/25 07:58:51;;;;;;;11.63;7.20;;;16.10;99.90;;;;;;4991884;28;20022;-92
2022/07/25 08:01:16;;;;;;;9.50;6.05;;;16.10;99.90;;;;;;4977310;28;20026;-93
2022/07/25 08:03:43;;;;;;;10.38;6.70;;;16.10;99.90;;;;;;4997263;28;20076;-92
2022/07/25 08:06:10;;;;;;;9.02;6.55;;;16.10;99.90;;;;;;4974729;28;20042;-90
2022/07/25 08:08:35;;;;;;;10.70;6.38;;;16.10;99.90;;;;;;4979403;28;20057;-91
2022/07/25 08:11:02;;;;;;;8.95;5.90;;;16.10;99.90;;;;;;4971152;28;20559;-90
2022/07/25 08:13:30;;;;;;;8.15;5.63;;;16.10;99.90;;;;;;4972123;28;20031;-90
2022/07/25 08:15:58;;;;;;;10.10;6.43;;;16.10;99.90;;;;;;4974234;28;20022;-92
2022/07/25 08:18:25;;;;;;;10.57;6.88;;;16.10;99.90;;;;;;5007681;28;20069;-90
2022/07/25 08:20:51;;;;;;;9.73;6.25;;;16.10;99.90;;;;;;4982671;28;20030;-90
2022/07/25 08:23:18;;;;;;;11.70;6.22;;;16.10;99.90;;;;;;4980728;28;20121;-90
2022/07/25 08:25:44;;;;;;;10.05;6.97;;;16.10;99.90;;;;;;4996536;28;20077;-92
2022/07/25 08:28:13;;;;;;;13.05;7.90;;;16.10;99.90;;;;;;4979905;28;20034;-92
2022/07/25 08:30:40;;;;;;;9.13;6.60;;;16.10;99.90;;;;;;4979891;28;20022;-91
2022/07/25 08:33:12;;;;;;;10.43;8.18;;;16.10;99.90;;;;;;4981044;28;20484;-93
2022/07/25 08:35:46;;;;;;;8.68;7.75;;;16.10;99.90;;;;;;4998287;28;20037;-94
2022/07/25 08:38:12;;;;;;;12.88;7.88;;;16.20;99.90;;;;;;4980241;28;20133;-92
2022/07/25 08:40:40;;;;;;;12.27;7.80;;;16.30;99.90;;;;;;4998148;28;20054;-93
2022/07/25 08:43:11;;;;;;;10.95;6.63;;;16.30;99.90;;;;;;4981179;28;20057;-95
2022/07/25 08:45:42;;;;;;;;;;;16.40;99.90;;;;;;4982370;28;20080;-95
2022/07/25 08:48:44;;;;;;;8.43;6.97;;;16.40;99.90;;;;;;4981751;28;19929;-94
2022/07/25 08:51:13;;;;;;;8.32;6.07;;;16.60;99.90;;;;;;4982503;28;20030;-95
2022/07/25 08:53:41;;;;;;;11.30;7.43;;;16.60;99.90;;;;;;5001507;28;20030;-96
2022/07/25 08:56:08;;;;;;;7.00;6.40;;;16.60;99.90;;;;;;4985853;28;20057;-95
2022/07/25 08:58:34;;;;;;;9.00;6.43;;;16.70;99.90;;;;;;5009491;28;20030;-92
2022/07/25 09:00:59;;;;;;;9.27;6.72;;;16.80;99.90;;;;;;5004967;28;20034;-93
2022/07/25 09:03:26;;;;;;;8.10;6.68;;;16.80;99.90;;;;;;5006080;28;20026;-91
2022/07/25 09:05:51;;;;;;;8.48;6.65;;;16.80;99.90;;;;;;5003472;28;20037;-92
2022/07/25 09:08:17;;;;;;;7.25;6.55;;;16.90;99.90;;;;;;5001676;28;20034;-94
2022/07/25 09:10:51;;;;;;;7.35;6.53;;;16.90;99.90;;;;;;5004276;28;20022;-90
2022/07/25 09:13:20;;;;;;;7.15;6.45;;;16.90;99.90;;;;;;4988341;28;20029;-89
2022/07/25 09:15:50;;;;;;;7.65;6.63;;;16.90;99.90;;;;;;4994571;28;20030;-92
2022/07/25 09:18:18;;;;;;;6.80;6.10;;;16.90;99.90;;;;;;4994512;28;20060;-94
2022/07/25 09:20:52;;;;;;;7.20;5.80;;;16.90;99.90;;;;;;4992901;28;20121;-94
2022/07/25 09:23:37;;;;;;;5.53;4.95;;;17.00;99.90;;;;;;5008777;28;20046;-93
2022/07/25 09:26:07;;;;;;;6.22;4.22;;;17.00;99.90;;;;;;4990066;28;20102;-95
2022/07/25 09:28:57;;;;;;;4.97;4.03;;;17.10;99.90;;;;;;5006446;28;20092;-96
2022/07/25 09:31:31;;;;;;;5.05;3.53;;;17.20;99.90;;;;;;5010018;28;20037;-95
2022/07/25 09:33:59;;;;;;;4.03;3.70;;;17.20;99.90;;;;;;4988513;28;20366;-94
2022/07/25 09:36:24;;;;;;;4.53;3.40;;;17.20;99.90;;;;;;4998438;28;20064;-95
2022/07/25 09:39:03;;;;;;;5.10;3.47;;;17.20;99.90;;;;;;5006643;28;20101;-90
2022/07/25 09:41:33;;;;;;;5.40;3.70;;;17.20;99.90;;;;;;5001065;28;20023;-92
2022/07/25 09:43:59;;;;;;;6.15;4.68;;;17.20;99.90;;;;;;4973694;28;20043;-90
2022/07/25 09:46:31;;;;;;;5.28;4.78;;;17.20;99.90;;;;;;4985423;28;20546;-95
2022/07/25 09:48:59;;;;;;;5.93;5.15;;;17.20;99.90;;;;;;4967885;28;20238;-93
2022/07/25 09:51:26;;;;;;;6.90;6.18;;;17.20;99.90;;;;;;4968098;28;20395;-95
2022/07/25 09:53:54;;;;;;;7.15;6.13;;;17.10;99.90;;;;;;4965327;28;20030;-95
2022/07/25 09:56:20;;;;;;;7.90;5.45;;;17.10;99.90;;;;;;4971706;28;20031;-96
2022/07/25 09:58:51;;;;;;;7.93;5.28;;;17.00;99.90;;;;;;4974396;28;20022;-94
2022/07/25 10:01:24;;;;;;;5.53;5.00;;;16.90;99.90;;;;;;4967970;28;20373;-94
2022/07/25 10:04:04;;;;;;;4.70;3.83;;;16.90;99.90;;;;;;4964891;28;20023;-94
2022/07/25 10:06:39;;;;;;;4.43;4.03;;;17.00;99.90;;;;;;4970967;28;20098;-95
2022/07/25 10:09:12;;;;;;;3.10;2.80;;;17.00;99.90;;;;;;4974762;28;20033;-94
2022/07/25 10:11:39;;;;;;;3.03;2.55;;;17.10;99.90;;;;;;4967224;28;20031;-94
2022/07/25 10:14:11;;;;;;;1.88;1.65;;;17.20;99.90;;;;;;4986601;28;20492;-95
2022/07/25 10:16:46;;;;;;;1.45;1.35;;;17.30;99.90;;;;;;4967743;28;20031;-94
2022/07/25 10:19:12;;;;;;;1.30;1.20;;;17.30;99.90;;;;;;4989831;28;20039;-94
2022/07/25 10:21:41;;;;;;;1.70;0.80;;;17.30;99.90;;;;;;4978144;28;20061;-95
2022/07/25 10:24:08;;;;;;;2.63;0.98;;;17.30;99.90;;;;;;4971064;28;20054;-95
2022/07/25 10:26:39;;;;;;;1.52;1.10;;;17.40;99.90;;;;;;4987206;28;20034;-96
2022/07/25 10:29:12;;;;;;;1.77;1.00;;;17.40;99.90;;;;;;4989729;28;20019;-94
2022/07/25 10:31:44;;;;;;;2.72;1.15;;;17.40;99.90;;;;;;4973971;28;20062;-95
2022/07/25 10:34:13;;;;;;;1.10;1.00;;;17.50;99.90;;;;;;4994235;28;20050;-95
2022/07/25 10:36:44;;;;;;;1.60;1.10;;;17.60;99.90;;;;;;4972332;28;20041;-95
2022/07/25 10:39:13;;;;;;;1.60;1.20;;;17.70;99.90;;;;;;4993475;28;20029;-94
2022/07/25 10:41:42;;;;;;;1.17;0.93;;;17.80;99.90;;;;;;4986079;28;20277;-94
2022/07/25 10:44:15;;;;;;;1.70;1.10;;;17.90;99.90;;;;;;4966085;28;20110;-95
2022/07/25 10:46:43;;;;;;;2.03;1.25;;;18.10;99.90;;;;;;4966134;28;20210;-95
2022/07/25 10:49:26;;;;;;;4.20;1.27;;;18.20;99.90;;;;;;4969626;28;20030;-95
2022/07/25 10:51:57;;;;;;;3.70;1.73;;;18.10;99.90;;;;;;4970343;28;20030;-94
2022/07/25 10:54:39;;;;;;;1.95;1.23;;;18.10;99.90;;;;;;4965213;28;20563;-95
2022/07/25 10:57:15;;;;;;;1.73;1.15;;;17.90;99.90;;;;;;4964506;28;20023;-95
2022/07/25 10:59:41;;;;;;;1.38;1.02;;;17.80;99.90;;;;;;4966705;28;20034;-95
2022/07/25 11:02:18;;;;;;;2.53;1.00;;;17.70;99.90;;;;;;4965308;28;20023;-95
2022/07/25 11:04:58;;;;;;;1.38;0.80;;;17.60;99.90;;;;;;4964733;28;20477;-95
2022/07/25 11:07:27;;;;;;;1.10;0.80;;;17.50;99.90;;;;;;4948213;28;20089;-92
2022/07/25 11:09:58;;;;;;;1.48;0.88;;;17.70;99.90;;;;;;4966801;28;20492;-94
2022/07/25 11:12:43;;;;;;;1.65;0.88;;;17.80;99.90;;;;;;4987157;28;20035;-95
2022/07/25 11:15:20;;;;;;;1.10;0.98;;;18.10;99.90;;;;;;4984505;28;20496;-94
2022/07/25 11:18:01;;;;;;;2.97;1.13;;;18.40;99.90;;;;;;4955755;28;20126;-95
2022/07/25 11:20:45;;;;;;;5.18;1.77;;;18.60;99.90;;;;;;4978256;28;20499;-96
2022/07/25 11:23:29;;;;;;;2.15;1.40;;;18.80;99.90;;;;;;4986252;28;20033;-95
2022/07/25 11:26:13;;;;;;;4.90;1.63;;;19.00;99.90;;;;;;4996081;28;20052;-96
2022/07/25 11:28:49;;;;;;;2.17;1.40;;;19.10;99.90;;;;;;4974589;28;20038;-94
2022/07/25 11:31:16;;;;;;;3.70;1.40;;;19.20;99.90;;;;;;4955248;28;20031;-95
2022/07/25 11:33:48;;;;;;;1.58;1.20;;;19.30;99.90;;;;;;4971185;28;20038;-96
2022/07/25 11:36:17;;;;;;;2.42;1.70;;;19.50;99.90;;;;;;4978617;28;20030;-96
2022/07/25 11:38:47;;;;;;;2.65;1.50;;;19.60;99.90;;;;;;4986304;28;20397;-95
2022/07/25 11:41:13;;;;;;;1.90;1.20;;;19.70;99.90;;;;;;4972695;28;20050;-96
2022/07/25 11:43:52;;;;;;;3.72;1.48;;;19.70;99.90;;;;;;4974968;28;20029;-94
2022/07/25 11:46:18;;;;;;;3.08;1.40;;;19.70;99.90;;;;;;4963588;28;20062;-95
2022/07/25 11:49:13;;;;;;;2.50;1.60;;;19.50;99.90;;;;;;4983257;28;20046;-95
2022/07/25 11:51:40;;;;;;;2.95;1.30;;;19.40;99.90;;;;;;4999856;28;20034;-91
2022/07/25 11:54:15;;;;;;;3.15;1.30;;;19.30;99.90;;;;;;5000978;28;20056;-94
2022/07/25 11:56:45;;;;;;;2.85;1.35;;;19.30;99.90;;;;;;4965852;28;20043;-94
2022/07/25 11:59:15;;;;;;;8.48;2.45;;;19.30;99.90;;;;;;4969297;28;20073;-94
2022/07/25 12:02:17;;;;;;;4.43;1.58;;;19.30;99.90;;;;;;4984288;28;20034;-96
2022/07/25 12:05:15;;;;;;;3.92;1.60;;;19.20;99.90;;;;;;4966766;28;20034;-94
2022/07/25 12:07:47;;;;;;;6.05;1.90;;;19.10;99.90;;;;;;4989805;28;20062;-94
2022/07/25 12:10:22;;;;;;;5.88;1.80;;;19.00;99.90;;;;;;4970613;28;20035;-95
2022/07/25 12:12:55;;;;;;;5.78;1.60;;;19.00;99.90;;;;;;4968907;28;20399;-95
2022/07/25 12:15:31;;;;;;;3.80;1.65;;;19.00;99.90;;;;;;4971068;28;20038;-95
2022/07/25 12:17:58;;;;;;;3.58;1.30;;;18.90;99.90;;;;;;4988854;28;20077;-95
2022/07/25 12:20:29;;;;;;;1.73;1.02;;;18.80;99.90;;;;;;4966381;28;20034;-94
2022/07/25 12:22:59;;;;;;;2.47;0.98;;;18.70;99.90;;;;;;4971832;28;20057;-96
2022/07/25 12:25:26;;;;;;;1.10;1.00;;;18.70;99.90;;;;;;4966858;28;20054;-94
2022/07/25 12:27:52;;;;;;;1.40;1.00;;;18.70;99.90;;;;;;4967459;28;20035;-95
2022/07/25 12:30:18;;;;;;;1.30;0.90;;;18.80;99.90;;;;;;4969747;28;20035;-96
2022/07/25 12:32:44;;;;;;;0.90;0.63;;;18.70;99.90;;;;;;4972911;28;20023;-95
2022/07/25 12:35:12;;;;;;;1.20;0.93;;;18.70;99.90;;;;;;4969718;28;20045;-96
2022/07/25 12:37:40;;;;;;;2.67;1.17;;;18.60;99.90;;;;;;4976680;28;20034;-95
2022/07/25 12:40:10;;;;;;;1.17;0.85;;;18.70;99.90;;;;;;4975022;28;20042;-96
2022/07/25 12:42:36;;;;;;;3.05;1.50;;;18.90;99.90;;;;;;4969920;28;20023;-96
2022/07/25 12:45:02;;;;;;;2.78;1.50;;;19.00;99.90;;;;;;4970167;28;20495;-96
2022/07/25 12:47:31;;;;;;;2.10;1.63;;;19.10;99.90;;;;;;4974681;28;20559;-95
2022/07/25 12:49:57;;;;;;;8.15;2.13;;;19.10;99.90;;;;;;4977927;28;20099;-95
2022/07/25 12:52:23;;;;;;;4.55;1.80;;;18.90;99.90;;;;;;4976151;28;20464;-96
2022/07/25 12:54:49;;;;;;;7.93;2.30;;;18.90;99.90;;;;;;4971857;28;20041;-96